sensor_id;sensor_type;location;lat;lon;timestamp;pressure;altitude;pressure_sealevel;temperature;humidity
70015;BME280;57358;51.094;6.760;2023-03-19T00:03:16;100534.28;;;9.41;100.00
70015;BME280;57358;51.094;6.760;2023-03-19T00:05:56;100684.44;;;10.30;100.00
70015;BME280;57358;51.094;6.760;2023-03-19T00:12:33;100683.56;;;10.12;100.00
70015;BME280;57358;51.094;6.760;2023-03-19T00:15:22;100621.41;;;9.62;100.00
70015;BME280;57358;51.094;6.760;2023-03-19T00:21:47;100681.09;;;9.74;100.00
70015;BME280;57358;51.094;6.760;2023-03-19T00:24:25;100589.38;;;9.03;100.00
70015;BME280;57358;51.094;6.760;2023-03-19T00:30:21;100687.81;;;9.43;100.00
70015;BME280;57358;51.094;6.760;2023-03-19T00:32:54;100695.25;;;9.33;100.00
70015;BME280;57358;51.094;6.760;2023-03-19T00:35:38;100702.63;;;9.25;100.00
70015;BME280;57358;51.094;6.760;2023-03-19T00:38:25;100693.34;;;9.18;100.00
70015;BME280;57358;51.094;6.760;2023-03-19T00:41:04;100690.88;;;9.15;100.00
70015;BME280;57358;51.094;6.760;2023-03-19T00:47:05;100546.81;;;8.22;100.00
70015;BME280;57358;51.094;6.760;2023-03-19T00:50:21;100696.69;;;9.03;100.00
70015;BME280;57358;51.094;6.760;2023-03-19T00:52:54;100647.50;;;8.71;100.00
70015;BME280;57358;51.094;6.760;2023-03-19T00:55:31;100692.50;;;8.98;100.00
70015;BME280;57358;51.094;6.760;2023-03-19T00:58:22;100692.63;;;8.95;100.00
70015;BME280;57358;51.094;6.760;2023-03-19T01:01:10;100644.53;;;8.60;100.00
70015;BME280;57358;51.094;6.760;2023-03-19T01:04:03;100307.63;;;6.58;100.00
70015;BME280;57358;51.094;6.760;2023-03-19T01:07:06;100701.50;;;8.93;100.00
70015;BME280;57358;51.094;6.760;2023-03-19T01:15:46;100599.22;;;8.39;100.00
70015;BME280;57358;51.094;6.760;2023-03-19T01:25:32;100678.06;;;8.90;100.00
70015;BME280;57358;51.094;6.760;2023-03-19T01:28:12;100634.25;;;8.55;100.00
70015;BME280;57358;51.094;6.760;2023-03-19T01:31:00;100687.97;;;8.83;100.00
70015;BME280;57358;51.094;6.760;2023-03-19T01:34:06;100540.41;;;7.89;100.00
70015;BME280;57358;51.094;6.760;2023-03-19T01:40:21;100683.06;;;8.75;100.00
70015;BME280;57358;51.094;6.760;2023-03-19T01:49:05;100610.09;;;8.09;100.00
70015;BME280;57358;51.094;6.760;2023-03-19T01:52:01;100672.88;;;8.69;100.00
70015;BME280;57358;51.094;6.760;2023-03-19T01:55:00;100675.50;;;8.69;100.00
70015;BME280;57358;51.094;6.760;2023-03-19T01:57:48;100680.59;;;8.72;100.00
70015;BME280;57358;51.094;6.760;2023-03-19T02:00:36;100528.53;;;7.82;100.00
70015;BME280;57358;51.094;6.760;2023-03-19T02:03:17;100676.78;;;8.79;100.00
70015;BME280;57358;51.094;6.760;2023-03-19T02:06:15;100672.25;;;8.83;100.00
70015;BME280;57358;51.094;6.760;2023-03-19T02:09:05;100537.91;;;8.07;100.00
70015;BME280;57358;51.094;6.760;2023-03-19T02:11:45;100678.66;;;8.96;100.00
70015;BME280;57358;51.094;6.760;2023-03-19T02:14:36;100673.97;;;9.03;100.00
70015;BME280;57358;51.094;6.760;2023-03-19T02:17:10;100683.09;;;8.94;100.00
70015;BME280;57358;51.094;6.760;2023-03-19T02:20:23;100644.63;;;8.96;100.00
70015;BME280;57358;51.094;6.760;2023-03-19T02:23:29;100678.22;;;9.25;100.00
70015;BME280;57358;51.094;6.760;2023-03-19T02:26:22;100681.44;;;9.30;100.00
70015;BME280;57358;51.094;6.760;2023-03-19T02:29:10;100677.75;;;9.34;100.00
70015;BME280;57358;51.094;6.760;2023-03-19T02:31:48;100634.91;;;9.17;100.00
70015;BME280;57358;51.094;6.760;2023-03-19T02:34:38;100613.84;;;9.02;100.00
70015;BME280;57358;51.094;6.760;2023-03-19T02:37:11;100670.41;;;9.42;100.00
70015;BME280;57358;51.094;6.760;2023-03-19T02:40:05;100666.03;;;9.43;100.00
70015;BME280;57358;51.094;6.760;2023-03-19T02:42:54;100667.63;;;9.45;100.00
70015;BME280;57358;51.094;6.760;2023-03-19T02:45:30;100657.38;;;9.41;100.00
70015;BME280;57358;51.094;6.760;2023-03-19T02:48:00;100666.56;;;9.49;100.00
70015;BME280;57358;51.094;6.760;2023-03-19T02:50:45;100663.94;;;9.49;100.00
70015;BME280;57358;51.094;6.760;2023-03-19T02:53:16;100670.91;;;9.50;100.00
70015;BME280;57358;51.094;6.760;2023-03-19T02:55:58;100669.13;;;9.51;100.00
70015;BME280;57358;51.094;6.760;2023-03-19T02:58:26;100673.34;;;9.53;100.00
70015;BME280;57358;51.094;6.760;2023-03-19T03:01:20;100687.22;;;9.55;100.00
70015;BME280;57358;51.094;6.760;2023-03-19T03:03:55;100674.13;;;9.55;100.00
70015;BME280;57358;51.094;6.760;2023-03-19T03:06:52;100451.94;;;8.19;100.00
70015;BME280;57358;51.094;6.760;2023-03-19T03:09:22;100606.09;;;9.17;100.00
70015;BME280;57358;51.094;6.760;2023-03-19T03:11:56;100647.41;;;9.30;100.00
70015;BME280;57358;51.094;6.760;2023-03-19T03:14:44;100605.19;;;9.18;100.00
70015;BME280;57358;51.094;6.760;2023-03-19T03:17:41;100639.91;;;9.41;100.00
70015;BME280;57358;51.094;6.760;2023-03-19T03:20:28;100664.41;;;9.57;100.00
70015;BME280;57358;51.094;6.760;2023-03-19T03:22:58;100673.22;;;9.56;100.00
70015;BME280;57358;51.094;6.760;2023-03-19T03:25:57;100677.59;;;9.56;100.00
70015;BME280;57358;51.094;6.760;2023-03-19T03:28:23;100468.69;;;8.15;100.00
70015;BME280;57358;51.094;6.760;2023-03-19T03:31:08;100680.59;;;9.48;100.00
70015;BME280;57358;51.094;6.760;2023-03-19T03:34:01;100603.72;;;8.94;100.00
70015;BME280;57358;51.094;6.760;2023-03-19T03:36:34;100671.69;;;9.33;100.00
70015;BME280;57358;51.094;6.760;2023-03-19T03:39:06;100697.59;;;9.39;100.00
70015;BME280;57358;51.094;6.760;2023-03-19T03:41:56;100557.00;;;8.48;100.00
70015;BME280;57358;51.094;6.760;2023-03-19T03:44:50;100692.63;;;9.33;100.00
70015;BME280;57358;51.094;6.760;2023-03-19T03:47:36;100605.63;;;8.71;100.00
70015;BME280;57358;51.094;6.760;2023-03-19T03:50:20;100704.25;;;9.28;100.00
70015;BME280;57358;51.094;6.760;2023-03-19T03:53:21;100705.91;;;9.30;100.00
70015;BME280;57358;51.094;6.760;2023-03-19T03:55:51;100715.38;;;9.33;100.00
70015;BME280;57358;51.094;6.760;2023-03-19T03:58:58;100632.50;;;8.75;100.00
70015;BME280;57358;51.094;6.760;2023-03-19T04:02:01;100744.00;;;9.36;100.00
70015;BME280;57358;51.094;6.760;2023-03-19T04:04:36;100530.84;;;8.28;100.00
70015;BME280;57358;51.094;6.760;2023-03-19T04:08:07;100708.41;;;9.32;100.00
70015;BME280;57358;51.094;6.760;2023-03-19T04:11:06;100665.50;;;8.98;100.00
70015;BME280;57358;51.094;6.760;2023-03-19T04:14:16;100704.94;;;9.31;100.00
70015;BME280;57358;51.094;6.760;2023-03-19T04:17:11;100717.28;;;9.29;100.00
70015;BME280;57358;51.094;6.760;2023-03-19T04:20:25;100636.91;;;8.74;100.00
70015;BME280;57358;51.094;6.760;2023-03-19T04:22:55;100626.78;;;8.67;100.00
70015;BME280;57358;51.094;6.760;2023-03-19T04:25:38;100723.78;;;9.21;100.00
70015;BME280;57358;51.094;6.760;2023-03-19T04:28:16;100717.78;;;9.18;100.00
70015;BME280;57358;51.094;6.760;2023-03-19T04:31:07;100633.91;;;8.63;100.00
70015;BME280;57358;51.094;6.760;2023-03-19T04:33:51;100711.91;;;9.13;100.00
70015;BME280;57358;51.094;6.760;2023-03-19T04:36:44;100720.69;;;9.12;100.00
70015;BME280;57358;51.094;6.760;2023-03-19T04:39:32;100733.84;;;9.11;100.00
70015;BME280;57358;51.094;6.760;2023-03-19T04:42:28;100238.25;;;6.13;100.00
70015;BME280;57358;51.094;6.760;2023-03-19T04:45:02;100727.03;;;9.07;100.00
70015;BME280;57358;51.094;6.760;2023-03-19T04:50:56;100735.53;;;9.12;100.00
70015;BME280;57358;51.094;6.760;2023-03-19T04:53:41;100735.47;;;9.13;100.00
70015;BME280;57358;51.094;6.760;2023-03-19T04:56:38;100536.75;;;7.93;100.00
70015;BME280;57358;51.094;6.760;2023-03-19T04:59:17;100700.56;;;8.94;100.00
70015;BME280;57358;51.094;6.760;2023-03-19T05:01:55;100748.63;;;9.31;100.00
70015;BME280;57358;51.094;6.760;2023-03-19T05:05:05;100742.34;;;9.35;100.00
70015;BME280;57358;51.094;6.760;2023-03-19T05:07:59;100750.03;;;9.38;100.00
70015;BME280;57358;51.094;6.760;2023-03-19T05:10:47;100749.19;;;9.37;100.00
70015;BME280;57358;51.094;6.760;2023-03-19T05:13:25;100754.38;;;9.39;100.00
70015;BME280;57358;51.094;6.760;2023-03-19T05:15:53;100756.91;;;9.41;100.00
70015;BME280;57358;51.094;6.760;2023-03-19T05:18:24;100766.53;;;9.40;100.00
70015;BME280;57358;51.094;6.760;2023-03-19T05:20:54;100757.81;;;9.39;100.00
70015;BME280;57358;51.094;6.760;2023-03-19T05:23:31;100703.94;;;8.96;100.00
70015;BME280;57358;51.094;6.760;2023-03-19T05:26:05;100747.56;;;9.35;100.00
70015;BME280;57358;51.094;6.760;2023-03-19T05:28:55;100750.31;;;9.32;100.00
70015;BME280;57358;51.094;6.760;2023-03-19T05:31:31;100677.28;;;8.88;100.00
70015;BME280;57358;51.094;6.760;2023-03-19T05:34:22;100745.53;;;9.23;100.00
70015;BME280;57358;51.094;6.760;2023-03-19T05:37:01;100744.03;;;9.17;100.00
70015;BME280;57358;51.094;6.760;2023-03-19T05:39:32;100754.78;;;9.11;100.00
70015;BME280;57358;51.094;6.760;2023-03-19T05:42:01;100682.44;;;8.70;100.00
70015;BME280;57358;51.094;6.760;2023-03-19T05:44:27;100659.28;;;8.42;100.00
70015;BME280;57358;51.094;6.760;2023-03-19T05:46:57;100762.56;;;9.12;100.00
70015;BME280;57358;51.094;6.760;2023-03-19T05:49:23;100760.00;;;9.11;100.00
70015;BME280;57358;51.094;6.760;2023-03-19T05:51:51;100644.28;;;8.46;100.00
70015;BME280;57358;51.094;6.760;2023-03-19T05:54:17;100560.16;;;7.96;100.00
70015;BME280;57358;51.094;6.760;2023-03-19T05:56:47;100746.28;;;9.06;100.00
70015;BME280;57358;51.094;6.760;2023-03-19T05:59:14;100717.19;;;8.93;100.00
70015;BME280;57358;51.094;6.760;2023-03-19T06:01:41;100784.25;;;9.35;100.00
70015;BME280;57358;51.094;6.760;2023-03-19T06:04:07;100790.19;;;9.38;100.00
70015;BME280;57358;51.094;6.760;2023-03-19T06:06:34;100785.28;;;9.50;100.00
70015;BME280;57358;51.094;6.760;2023-03-19T06:09:04;100758.06;;;9.35;100.00
70015;BME280;57358;51.094;6.760;2023-03-19T06:11:33;100786.84;;;9.54;100.00
70015;BME280;57358;51.094;6.760;2023-03-19T06:14:00;100780.63;;;9.56;100.00
70015;BME280;57358;51.094;6.760;2023-03-19T06:16:27;100759.47;;;9.42;100.00
70015;BME280;57358;51.094;6.760;2023-03-19T06:18:56;100782.31;;;9.57;100.00
70015;BME280;57358;51.094;6.760;2023-03-19T06:21:25;100805.97;;;9.75;100.00
70015;BME280;57358;51.094;6.760;2023-03-19T06:23:55;100803.19;;;9.78;100.00
70015;BME280;57358;51.094;6.760;2023-03-19T06:26:23;100809.16;;;9.82;100.00
70015;BME280;57358;51.094;6.760;2023-03-19T06:28:52;100815.81;;;9.89;100.00
70015;BME280;57358;51.094;6.760;2023-03-19T06:31:24;100752.78;;;9.54;100.00
70015;BME280;57358;51.094;6.760;2023-03-19T06:33:51;100811.97;;;9.96;100.00
70015;BME280;57358;51.094;6.760;2023-03-19T06:36:17;100810.97;;;9.98;100.00
70015;BME280;57358;51.094;6.760;2023-03-19T06:38:44;100784.94;;;9.76;100.00
70015;BME280;57358;51.094;6.760;2023-03-19T06:41:21;100813.13;;;10.08;100.00
70015;BME280;57358;51.094;6.760;2023-03-19T06:43:50;100818.25;;;10.11;100.00
70015;BME280;57358;51.094;6.760;2023-03-19T06:46:16;100684.00;;;9.31;100.00
70015;BME280;57358;51.094;6.760;2023-03-19T06:48:43;100778.41;;;9.85;100.00
70015;BME280;57358;51.094;6.760;2023-03-19T06:51:10;100819.50;;;10.21;100.00
70015;BME280;57358;51.094;6.760;2023-03-19T06:53:36;100736.75;;;9.79;100.00
70015;BME280;57358;51.094;6.760;2023-03-19T06:56:04;100817.41;;;10.28;100.00
70015;BME280;57358;51.094;6.760;2023-03-19T06:58:33;100766.00;;;10.06;100.00
70015;BME280;57358;51.094;6.760;2023-03-19T07:01:01;100813.53;;;10.54;100.00
70015;BME280;57358;51.094;6.760;2023-03-19T07:03:28;100817.19;;;10.69;100.00
70015;BME280;57358;51.094;6.760;2023-03-19T07:05:56;100792.34;;;10.58;100.00
70015;BME280;57358;51.094;6.760;2023-03-19T07:08:22;100830.97;;;10.90;100.00
70015;BME280;57358;51.094;6.760;2023-03-19T07:10:49;100767.31;;;10.51;100.00
70015;BME280;57358;51.094;6.760;2023-03-19T07:13:19;100822.41;;;10.86;100.00
70015;BME280;57358;51.094;6.760;2023-03-19T07:15:46;100729.75;;;10.33;100.00
70015;BME280;57358;51.094;6.760;2023-03-19T07:18:12;100599.09;;;9.54;100.00
70015;BME280;57358;51.094;6.760;2023-03-19T07:20:39;100818.53;;;10.93;100.00
70015;BME280;57358;51.094;6.760;2023-03-19T07:23:06;100825.41;;;10.96;100.00
70015;BME280;57358;51.094;6.760;2023-03-19T07:25:35;100784.66;;;10.71;100.00
70015;BME280;57358;51.094;6.760;2023-03-19T07:28:02;100857.16;;;11.09;100.00
70015;BME280;57358;51.094;6.760;2023-03-19T07:30:28;100829.94;;;11.10;100.00
70015;BME280;57358;51.094;6.760;2023-03-19T07:32:55;100699.03;;;10.35;100.00
70015;BME280;57358;51.094;6.760;2023-03-19T07:35:22;100817.66;;;11.10;100.00
70015;BME280;57358;51.094;6.760;2023-03-19T07:37:49;100834.66;;;11.21;100.00
70015;BME280;57358;51.094;6.760;2023-03-19T07:40:17;100626.13;;;9.90;100.00
70015;BME280;57358;51.094;6.760;2023-03-19T07:42:44;100842.44;;;11.22;100.00
70015;BME280;57358;51.094;6.760;2023-03-19T07:45:11;100832.69;;;11.24;100.00
70015;BME280;57358;51.094;6.760;2023-03-19T07:47:38;100833.31;;;11.29;100.00
70015;BME280;57358;51.094;6.760;2023-03-19T07:50:05;100832.13;;;11.35;100.00
70015;BME280;57358;51.094;6.760;2023-03-19T07:52:32;100823.81;;;11.27;100.00
70015;BME280;57358;51.094;6.760;2023-03-19T07:55:02;100716.56;;;10.68;100.00
70015;BME280;57358;51.094;6.760;2023-03-19T07:57:31;100761.38;;;11.14;100.00
70015;BME280;57358;51.094;6.760;2023-03-19T07:59:58;100836.56;;;11.66;100.00
70015;BME280;57358;51.094;6.760;2023-03-19T08:02:25;100765.50;;;11.36;100.00
70015;BME280;57358;51.094;6.760;2023-03-19T08:04:51;100832.38;;;11.95;100.00
70015;BME280;57358;51.094;6.760;2023-03-19T08:07:18;100783.22;;;11.80;100.00
70015;BME280;57358;51.094;6.760;2023-03-19T08:09:47;100796.88;;;12.03;99.49
70015;BME280;57358;51.094;6.760;2023-03-19T08:12:14;100812.13;;;12.28;98.64
70015;BME280;57358;51.094;6.760;2023-03-19T08:14:41;100804.63;;;12.36;96.94
70015;BME280;57358;51.094;6.760;2023-03-19T08:17:08;100812.22;;;12.56;96.80
70015;BME280;57358;51.094;6.760;2023-03-19T08:19:34;100809.16;;;12.78;95.54
70015;BME280;57358;51.094;6.760;2023-03-19T08:22:01;100793.28;;;12.94;93.74
70015;BME280;57358;51.094;6.760;2023-03-19T08:24:28;100809.41;;;13.33;92.00
70015;BME280;57358;51.094;6.760;2023-03-19T08:26:57;100793.97;;;13.55;89.61
70015;BME280;57358;51.094;6.760;2023-03-19T08:29:24;100738.41;;;13.44;87.51
70015;BME280;57358;51.094;6.760;2023-03-19T08:31:57;100789.72;;;13.94;86.49
70015;BME280;57358;51.094;6.760;2023-03-19T08:34:26;100699.28;;;13.65;84.76
70015;BME280;57358;51.094;6.760;2023-03-19T08:36:55;100777.09;;;14.40;83.20
70015;BME280;57358;51.094;6.760;2023-03-19T08:39:22;100765.63;;;14.66;81.68
70015;BME280;57358;51.094;6.760;2023-03-19T08:41:49;100709.50;;;14.63;78.54
70015;BME280;57358;51.094;6.760;2023-03-19T08:44:15;100684.66;;;14.52;78.29
70015;BME280;57358;51.094;6.760;2023-03-19T08:46:42;100716.59;;;14.75;78.44
70015;BME280;57358;51.094;6.760;2023-03-19T08:49:11;100722.38;;;14.93;78.34
70015;BME280;57358;51.094;6.760;2023-03-19T08:51:38;100580.75;;;14.15;77.54
70015;BME280;57358;51.094;6.760;2023-03-19T08:54:05;100679.28;;;14.92;75.80
70015;BME280;57358;51.094;6.760;2023-03-19T08:56:32;100692.72;;;14.89;76.47
70015;BME280;57358;51.094;6.760;2023-03-19T08:58:58;100699.63;;;15.03;77.12
70015;BME280;57358;51.094;6.760;2023-03-19T09:01:25;100668.41;;;14.84;76.21
70015;BME280;57358;51.094;6.760;2023-03-19T09:03:52;100672.66;;;14.74;76.87
70015;BME280;57358;51.094;6.760;2023-03-19T09:06:18;100704.63;;;14.95;77.14
70015;BME280;57358;51.094;6.760;2023-03-19T09:08:45;100672.41;;;14.90;77.29
70015;BME280;57358;51.094;6.760;2023-03-19T09:11:12;100667.31;;;15.00;76.07
70015;BME280;57358;51.094;6.760;2023-03-19T09:13:39;100646.34;;;15.09;75.21
70015;BME280;57358;51.094;6.760;2023-03-19T09:16:06;100581.09;;;14.86;74.50
70015;BME280;57358;51.094;6.760;2023-03-19T09:18:33;100532.38;;;14.90;73.75
70015;BME280;57358;51.094;6.760;2023-03-19T09:21:00;100665.44;;;15.98;72.09
70015;BME280;57358;51.094;6.760;2023-03-19T09:23:27;100659.63;;;15.93;71.48
70015;BME280;57358;51.094;6.760;2023-03-19T09:25:55;100628.81;;;15.81;70.66
70015;BME280;57358;51.094;6.760;2023-03-19T09:28:22;100607.03;;;15.77;70.82
70015;BME280;57358;51.094;6.760;2023-03-19T09:30:49;100660.72;;;16.48;70.25
70015;BME280;57358;51.094;6.760;2023-03-19T09:33:19;100606.00;;;16.13;69.47
70015;BME280;57358;51.094;6.760;2023-03-19T09:35:52;100637.59;;;16.73;69.13
70015;BME280;57358;51.094;6.760;2023-03-19T09:38:20;100550.56;;;16.34;67.38
70015;BME280;57358;51.094;6.760;2023-03-19T09:40:53;100594.38;;;16.50;67.82
70015;BME280;57358;51.094;6.760;2023-03-19T09:44:03;100624.56;;;17.04;67.57
70015;BME280;57358;51.094;6.760;2023-03-19T09:46:37;100472.88;;;16.57;64.05
70015;BME280;57358;51.094;6.760;2023-03-19T09:49:23;100517.19;;;16.66;64.41
70015;BME280;57358;51.094;6.760;2023-03-19T09:54:47;100483.63;;;16.21;64.82
70015;BME280;57358;51.094;6.760;2023-03-19T09:57:20;100505.03;;;15.95;66.67
70015;BME280;57358;51.094;6.760;2023-03-19T09:59:46;100486.03;;;15.32;67.89
70015;BME280;57358;51.094;6.760;2023-03-19T10:15:53;100633.31;;;15.19;72.96
70015;BME280;57358;51.094;6.760;2023-03-19T10:18:27;100571.03;;;14.91;73.07
70015;BME280;57358;51.094;6.760;2023-03-19T10:23:48;100609.28;;;15.46;70.83
70015;BME280;57358;51.094;6.760;2023-03-19T10:26:18;100602.81;;;15.50;69.64
70015;BME280;57358;51.094;6.760;2023-03-19T10:29:10;100612.72;;;15.60;70.11
70015;BME280;57358;51.094;6.760;2023-03-19T10:31:52;100424.31;;;14.50;69.96
70015;BME280;57358;51.094;6.760;2023-03-19T10:37:18;100630.09;;;15.75;70.54
70015;BME280;57358;51.094;6.760;2023-03-19T10:39:49;100603.47;;;15.65;69.93
70015;BME280;57358;51.094;6.760;2023-03-19T10:45:36;100647.16;;;15.47;71.97
70015;BME280;57358;51.094;6.760;2023-03-19T10:48:05;100606.31;;;15.03;73.19
70015;BME280;57358;51.094;6.760;2023-03-19T10:50:37;100653.25;;;14.99;73.96
70015;BME280;57358;51.094;6.760;2023-03-19T10:55:50;100607.47;;;14.36;75.28
70015;BME280;57358;51.094;6.760;2023-03-19T10:58:22;100712.69;;;14.81;77.50
70015;BME280;57358;51.094;6.760;2023-03-19T11:01:08;100696.75;;;14.69;77.70
70015;BME280;57358;51.094;6.760;2023-03-19T11:03:50;100718.38;;;14.87;77.74
70015;BME280;57358;51.094;6.760;2023-03-19T11:06:28;100713.28;;;14.97;77.57
70015;BME280;57358;51.094;6.760;2023-03-19T11:08:59;100735.16;;;15.12;77.35
70015;BME280;57358;51.094;6.760;2023-03-19T11:14:16;100755.28;;;15.88;75.51
70015;BME280;57358;51.094;6.760;2023-03-19T11:17:04;100720.09;;;16.10;73.66
70015;BME280;57358;51.094;6.760;2023-03-19T11:19:38;100684.59;;;16.13;72.03
70015;BME280;57358;51.094;6.760;2023-03-19T11:24:36;100619.34;;;15.65;69.98
70015;BME280;57358;51.094;6.760;2023-03-19T11:27:08;100686.91;;;15.58;72.79
70015;BME280;57358;51.094;6.760;2023-03-19T11:29:41;100737.06;;;15.60;75.28
70015;BME280;57358;51.094;6.760;2023-03-19T11:32:50;100548.41;;;14.37;76.14
70015;BME280;57358;51.094;6.760;2023-03-19T11:35:24;100807.13;;;15.41;81.08
70015;BME280;57358;51.094;6.760;2023-03-19T11:38:03;100828.81;;;15.46;83.21
70015;BME280;57358;51.094;6.760;2023-03-19T11:40:43;100855.03;;;15.62;84.58
70015;BME280;57358;51.094;6.760;2023-03-19T11:51:59;100770.25;;;15.14;85.15
70015;BME280;57358;51.094;6.760;2023-03-19T11:54:50;100845.84;;;15.29;85.61
70015;BME280;57358;51.094;6.760;2023-03-19T11:57:31;100898.09;;;15.39;91.47
70015;BME280;57358;51.094;6.760;2023-03-19T12:00:27;100920.75;;;15.55;93.21
70015;BME280;57358;51.094;6.760;2023-03-19T12:05:59;100875.75;;;15.68;87.48
70015;BME280;57358;51.094;6.760;2023-03-19T12:08:47;100886.97;;;15.85;87.30
70015;BME280;57358;51.094;6.760;2023-03-19T12:14:03;100760.56;;;15.88;78.42
70015;BME280;57358;51.094;6.760;2023-03-19T12:27:54;100854.22;;;14.18;92.78
70015;BME280;57358;51.094;6.760;2023-03-19T12:30:34;100819.38;;;13.56;93.32
70015;BME280;57358;51.094;6.760;2023-03-19T12:33:28;100910.72;;;13.86;99.48
70015;BME280;57358;51.094;6.760;2023-03-19T12:36:02;100923.97;;;14.13;98.75
70015;BME280;57358;51.094;6.760;2023-03-19T12:38:38;100908.25;;;13.98;97.46
70015;BME280;57358;51.094;6.760;2023-03-19T12:41:13;100826.25;;;13.45;98.21
70015;BME280;57358;51.094;6.760;2023-03-19T12:43:56;100847.19;;;13.48;97.52
70015;BME280;57358;51.094;6.760;2023-03-19T12:46:29;100881.06;;;13.54;99.14
70015;BME280;57358;51.094;6.760;2023-03-19T12:49:05;100850.63;;;13.20;100.00
70015;BME280;57358;51.094;6.760;2023-03-19T12:51:38;100932.78;;;13.26;100.00
70015;BME280;57358;51.094;6.760;2023-03-19T12:54:17;100918.19;;;13.21;100.00
70015;BME280;57358;51.094;6.760;2023-03-19T13:02:02;100957.41;;;13.11;100.00
70015;BME280;57358;51.094;6.760;2023-03-19T13:04:32;100985.34;;;12.99;100.00
70015;BME280;57358;51.094;6.760;2023-03-19T13:07:17;100986.66;;;13.06;100.00
70015;BME280;57358;51.094;6.760;2023-03-19T13:09:55;100953.13;;;12.94;100.00
70015;BME280;57358;51.094;6.760;2023-03-19T13:12:26;100905.81;;;12.62;100.00
70015;BME280;57358;51.094;6.760;2023-03-19T13:17:43;100974.81;;;13.29;100.00
70015;BME280;57358;51.094;6.760;2023-03-19T13:20:34;100981.25;;;13.40;100.00
70015;BME280;57358;51.094;6.760;2023-03-19T13:23:05;100971.00;;;13.49;100.00
70015;BME280;57358;51.094;6.760;2023-03-19T13:25:39;100971.94;;;13.77;100.00
70015;BME280;57358;51.094;6.760;2023-03-19T13:28:12;100965.56;;;13.95;100.00
70015;BME280;57358;51.094;6.760;2023-03-19T13:33:29;100841.25;;;13.30;100.00
70015;BME280;57358;51.094;6.760;2023-03-19T13:36:00;100810.25;;;13.19;100.00
70015;BME280;57358;51.094;6.760;2023-03-19T13:38:43;100872.88;;;13.59;100.00
70015;BME280;57358;51.094;6.760;2023-03-19T13:44:00;100883.03;;;13.65;100.00
70015;BME280;57358;51.094;6.760;2023-03-19T13:46:44;100696.66;;;12.52;100.00
70015;BME280;57358;51.094;6.760;2023-03-19T13:49:38;100920.88;;;13.92;100.00
70015;BME280;57358;51.094;6.760;2023-03-19T13:54:40;100900.69;;;14.06;100.00
70015;BME280;57358;51.094;6.760;2023-03-19T13:59:46;100898.84;;;13.93;98.53
70015;BME280;57358;51.094;6.760;2023-03-19T14:05:02;100886.31;;;13.83;96.11
70015;BME280;57358;51.094;6.760;2023-03-19T14:07:37;100864.28;;;13.84;94.11
70015;BME280;57358;51.094;6.760;2023-03-19T14:10:25;100863.31;;;13.85;92.01
70015;BME280;57358;51.094;6.760;2023-03-19T14:13:32;100854.97;;;13.78;91.88
70015;BME280;57358;51.094;6.760;2023-03-19T14:16:05;100842.63;;;13.64;90.95
70015;BME280;57358;51.094;6.760;2023-03-19T14:18:39;100775.41;;;13.14;92.49
70015;BME280;57358;51.094;6.760;2023-03-19T14:22:05;100853.00;;;13.53;91.77
70015;BME280;57358;51.094;6.760;2023-03-19T14:27:28;100686.97;;;12.38;94.38
70015;BME280;57358;51.094;6.760;2023-03-19T14:29:56;100802.22;;;12.92;96.56
70015;BME280;57358;51.094;6.760;2023-03-19T14:32:33;100892.91;;;13.47;96.20
70015;BME280;57358;51.094;6.760;2023-03-19T14:35:06;100764.94;;;12.55;96.57
70015;BME280;57358;51.094;6.760;2023-03-19T14:40:16;100892.84;;;13.34;96.55
70015;BME280;57358;51.094;6.760;2023-03-19T14:42:56;100905.34;;;13.30;97.78
70015;BME280;57358;51.094;6.760;2023-03-19T14:45:47;100926.25;;;13.33;97.12
70015;BME280;57358;51.094;6.760;2023-03-19T14:51:18;100936.63;;;13.21;100.00
70015;BME280;57358;51.094;6.760;2023-03-19T14:53:52;100917.00;;;12.96;100.00
70015;BME280;57358;51.094;6.760;2023-03-19T14:56:26;100969.69;;;12.96;100.00
70015;BME280;57358;51.094;6.760;2023-03-19T14:58:56;100917.63;;;12.55;100.00
70015;BME280;57358;51.094;6.760;2023-03-19T15:01:26;100975.06;;;12.78;100.00
70015;BME280;57358;51.094;6.760;2023-03-19T15:03:56;100969.31;;;12.72;100.00
70015;BME280;57358;51.094;6.760;2023-03-19T15:06:24;100990.25;;;12.59;100.00
70015;BME280;57358;51.094;6.760;2023-03-19T15:08:56;100996.63;;;12.55;100.00
70015;BME280;57358;51.094;6.760;2023-03-19T15:11:36;100962.53;;;12.20;100.00
70015;BME280;57358;51.094;6.760;2023-03-19T15:14:20;101018.59;;;12.54;100.00
70015;BME280;57358;51.094;6.760;2023-03-19T15:17:11;100992.13;;;12.41;100.00
70015;BME280;57358;51.094;6.760;2023-03-19T15:19:41;100966.47;;;12.13;100.00
70015;BME280;57358;51.094;6.760;2023-03-19T15:22:13;100995.94;;;12.35;100.00
70015;BME280;57358;51.094;6.760;2023-03-19T15:24:41;100959.84;;;12.22;100.00
70015;BME280;57358;51.094;6.760;2023-03-19T15:27:24;100773.53;;;11.17;100.00
70015;BME280;57358;51.094;6.760;2023-03-19T15:29:52;100906.88;;;11.96;100.00
70015;BME280;57358;51.094;6.760;2023-03-19T15:32:32;101001.19;;;12.67;100.00
70015;BME280;57358;51.094;6.760;2023-03-19T15:35:20;100998.22;;;12.73;100.00
70015;BME280;57358;51.094;6.760;2023-03-19T15:37:52;100982.16;;;12.62;100.00
70015;BME280;57358;51.094;6.760;2023-03-19T15:40:23;100901.09;;;12.21;100.00
70015;BME280;57358;51.094;6.760;2023-03-19T15:42:54;101006.66;;;12.94;100.00
70015;BME280;57358;51.094;6.760;2023-03-19T15:45:24;100933.25;;;12.42;100.00
70015;BME280;57358;51.094;6.760;2023-03-19T15:48:01;101001.81;;;12.87;100.00
70015;BME280;57358;51.094;6.760;2023-03-19T15:50:32;101008.22;;;12.83;100.00